createdAt,value
2023-02-22T00:00:46.040Z,7.72
2023-02-22T00:01:46.042Z,7.74
2023-02-22T00:02:46.042Z,7.72
2023-02-22T00:03:45.988Z,7.72
2023-02-22T00:04:45.990Z,7.72
2023-02-22T00:05:46.036Z,7.71
2023-02-22T00:06:45.988Z,7.74
2023-02-22T00:07:45.968Z,7.75
2023-02-22T00:08:45.969Z,7.77
2023-02-22T00:09:46.004Z,7.77
2023-02-22T00:10:45.933Z,7.80
2023-02-22T00:11:45.914Z,7.82
2023-02-22T00:12:45.909Z,7.82
2023-02-22T00:13:45.898Z,7.82
2023-02-22T00:14:45.895Z,7.82
2023-02-22T00:15:45.874Z,7.83
2023-02-22T00:16:45.884Z,7.85
2023-02-22T00:17:45.838Z,7.86
2023-02-22T00:18:45.876Z,7.89
2023-02-22T00:19:45.844Z,7.89
2023-02-22T00:20:45.838Z,7.89
2023-02-22T00:21:45.810Z,7.90
2023-02-22T00:22:45.858Z,7.92
2023-02-22T00:23:45.843Z,7.93
2023-02-22T00:24:45.796Z,7.95
2023-02-22T00:25:45.754Z,7.95
2023-02-22T00:26:45.770Z,8.00
2023-02-22T00:27:45.759Z,8.00
2023-02-22T00:28:45.741Z,8.00
2023-02-22T00:29:45.714Z,8.01
2023-02-22T00:30:45.721Z,8.01
2023-02-22T00:31:45.785Z,8.04
2023-02-22T00:32:45.738Z,8.04
2023-02-22T00:33:45.676Z,8.05
2023-02-22T00:34:45.708Z,8.07
2023-02-22T00:35:45.652Z,8.05
2023-02-22T00:36:45.731Z,8.07
2023-02-22T00:37:45.635Z,8.05
2023-02-22T00:38:45.654Z,8.07
2023-02-22T00:39:45.620Z,8.05
2023-02-22T00:40:45.638Z,8.05
2023-02-22T00:41:45.652Z,8.07
2023-02-22T00:42:45.594Z,8.07
2023-02-22T00:43:45.580Z,8.08
2023-02-22T00:44:45.587Z,8.07
2023-02-22T00:45:45.591Z,8.07
2023-02-22T00:46:45.554Z,8.05
2023-02-22T00:47:45.517Z,8.07
2023-02-22T00:48:45.541Z,8.05
2023-02-22T00:49:45.536Z,8.05
2023-02-22T00:50:45.523Z,8.04
2023-02-22T00:51:45.494Z,8.07
2023-02-22T00:52:45.483Z,8.02
2023-02-22T00:53:45.478Z,8.05
2023-02-22T00:54:45.478Z,8.05
2023-02-22T00:55:45.461Z,8.04
2023-02-22T00:56:45.464Z,8.04
2023-02-22T00:57:45.429Z,8.04
2023-02-22T00:58:45.436Z,8.02
2023-02-22T00:59:45.411Z,8.05
2023-02-22T01:00:45.408Z,8.05
2023-02-22T01:01:45.366Z,8.05
2023-02-22T01:02:45.399Z,8.05
2023-02-22T01:03:45.351Z,8.07
2023-02-22T01:04:45.369Z,8.10
2023-02-22T01:05:45.353Z,8.08
2023-02-22T01:06:45.348Z,8.10
2023-02-22T01:07:45.398Z,8.11
2023-02-22T01:08:45.329Z,8.11
2023-02-22T01:09:45.296Z,8.11
2023-02-22T01:10:45.308Z,8.10
2023-02-22T01:11:45.284Z,8.12
2023-02-22T01:12:45.270Z,8.10
2023-02-22T01:13:46.222Z,8.12
2023-02-22T01:14:45.263Z,8.12
2023-02-22T01:15:45.251Z,8.15
2023-02-22T01:16:45.255Z,8.15
2023-02-22T01:17:45.201Z,8.12
2023-02-22T01:18:45.205Z,8.12
2023-02-22T01:19:45.215Z,8.15
2023-02-22T01:20:45.206Z,8.12
2023-02-22T01:21:45.155Z,8.12
2023-02-22T01:22:53.701Z,8.15
2023-02-22T01:23:54.676Z,8.12
2023-02-22T01:24:45.129Z,8.12
2023-02-22T01:25:45.110Z,8.12
2023-02-22T01:26:45.094Z,8.12
2023-02-22T01:27:45.089Z,8.12
2023-02-22T01:28:45.096Z,8.15
2023-02-22T01:29:45.076Z,8.15
2023-02-22T01:30:45.136Z,8.15
2023-02-22T01:31:45.057Z,8.16
2023-02-22T01:32:45.056Z,8.18
2023-02-22T01:33:45.049Z,8.12
2023-02-22T01:34:45.040Z,8.11
2023-02-22T01:35:45.012Z,8.12
2023-02-22T01:36:45.012Z,8.10
2023-02-22T01:37:44.996Z,8.11
2023-02-22T01:38:45.101Z,8.10
2023-02-22T01:39:44.966Z,8.07
2023-02-22T01:40:44.969Z,8.10
2023-02-22T01:41:44.944Z,8.08
2023-02-22T01:42:44.933Z,8.08
2023-02-22T01:43:44.925Z,8.07
2023-02-22T01:44:44.911Z,8.08
2023-02-22T01:45:44.917Z,8.07
2023-02-22T01:46:44.908Z,8.07
2023-02-22T01:47:44.886Z,8.07
2023-02-22T01:48:44.900Z,8.05
2023-02-22T01:49:44.864Z,8.05
2023-02-22T01:50:44.895Z,8.05
2023-02-22T01:51:44.869Z,8.04
2023-02-22T01:52:44.837Z,8.04
2023-02-22T01:53:44.829Z,8.01
2023-02-22T01:54:44.822Z,8.00
2023-02-22T01:55:44.800Z,7.97
2023-02-22T01:56:44.790Z,7.95
2023-02-22T01:57:44.789Z,7.92
2023-02-22T01:58:44.802Z,7.90
2023-02-22T01:59:44.745Z,7.87
2023-02-22T02:00:44.802Z,7.85
2023-02-22T02:01:44.761Z,7.82
2023-02-22T02:02:44.745Z,7.79
2023-02-22T02:03:44.714Z,7.75
2023-02-22T02:04:44.776Z,7.71
2023-02-22T02:05:44.693Z,7.71
2023-02-22T02:06:44.707Z,7.63
2023-02-22T02:07:44.670Z,7.60
2023-02-22T02:08:44.681Z,7.53
2023-02-22T02:09:44.672Z,7.49
2023-02-22T02:10:44.648Z,7.45
2023-02-22T02:11:44.661Z,7.43
2023-02-22T02:12:44.626Z,7.43
2023-02-22T02:13:44.599Z,7.39
2023-02-22T02:14:44.616Z,7.37
2023-02-22T02:15:44.592Z,7.34
2023-02-22T02:16:44.637Z,7.34
2023-02-22T02:17:44.545Z,7.34
2023-02-22T02:18:44.560Z,7.32
2023-02-22T02:19:44.575Z,7.35
2023-02-22T02:20:44.558Z,7.34
2023-02-22T02:21:44.520Z,7.32
2023-02-22T02:22:44.530Z,7.35
2023-02-22T02:23:44.497Z,7.37
2023-02-22T02:24:44.488Z,7.40
2023-02-22T02:25:44.502Z,7.43
2023-02-22T02:26:44.486Z,7.46
2023-02-22T02:27:44.461Z,7.46
2023-02-22T02:28:44.448Z,7.48
2023-02-22T02:29:44.434Z,7.48
2023-02-22T02:30:44.456Z,7.45
2023-02-22T02:31:44.494Z,7.43
2023-02-22T02:32:44.576Z,7.40
2023-02-22T02:33:44.393Z,7.39
2023-02-22T02:34:44.384Z,7.39
2023-02-22T02:35:44.367Z,7.31
2023-02-22T02:36:44.396Z,7.28
2023-02-22T02:37:44.348Z,7.23
2023-02-22T02:38:44.392Z,7.16
2023-02-22T02:39:44.309Z,7.10
2023-02-22T02:40:44.394Z,7.05
2023-02-22T02:41:44.322Z,6.98
2023-02-22T02:42:44.295Z,6.92
2023-02-22T02:43:44.315Z,6.91
2023-02-22T02:44:44.288Z,6.80
2023-02-22T02:45:44.270Z,6.81
2023-02-22T02:46:44.269Z,6.79
2023-02-22T02:47:44.229Z,6.73
2023-02-22T02:48:44.277Z,6.70
2023-02-22T02:49:44.215Z,6.64
2023-02-22T02:50:44.261Z,6.61
2023-02-22T02:51:44.252Z,6.56
2023-02-22T02:52:44.193Z,6.56
2023-02-22T02:53:44.176Z,6.59
2023-02-22T02:54:44.193Z,6.59
2023-02-22T02:55:44.148Z,6.55
2023-02-22T02:56:44.181Z,6.54
2023-02-22T02:57:44.134Z,6.52
2023-02-22T02:58:44.143Z,6.43
2023-02-22T02:59:44.119Z,6.40
2023-02-22T03:00:44.116Z,6.40
2023-02-22T03:01:44.143Z,6.37
2023-02-22T03:02:44.085Z,6.34
2023-02-22T03:03:44.084Z,6.30
2023-02-22T03:04:44.074Z,6.22
2023-02-22T03:05:44.060Z,6.19
2023-02-22T03:06:44.064Z,6.15
2023-02-22T03:07:44.056Z,6.09
2023-02-22T03:08:44.021Z,6.06
2023-02-22T03:09:44.019Z,6.08
2023-02-22T03:10:44.715Z,6.03
2023-02-22T03:11:44.047Z,6.00
2023-02-22T03:12:43.972Z,6.00
2023-02-22T03:13:43.982Z,5.97
2023-02-22T03:14:43.954Z,5.91
2023-02-22T03:15:43.938Z,5.81
2023-02-22T03:16:43.991Z,5.76
2023-02-22T03:17:43.935Z,5.72
2023-02-22T03:18:43.940Z,5.63
2023-02-22T03:19:43.920Z,5.57
2023-02-22T03:20:43.899Z,5.57
2023-02-22T03:21:43.879Z,5.60
2023-02-22T03:22:43.896Z,5.65
2023-02-22T03:23:43.845Z,5.63
2023-02-22T03:24:43.976Z,5.58
2023-02-22T03:25:43.855Z,5.58
2023-02-22T03:26:43.843Z,5.63
2023-02-22T03:27:43.927Z,5.61
2023-02-22T03:28:43.840Z,5.57
2023-02-22T03:29:43.815Z,5.53
2023-02-22T03:30:43.812Z,5.46
2023-02-22T03:31:43.869Z,5.43
2023-02-22T03:32:43.814Z,5.49
2023-02-22T03:33:43.783Z,5.56
2023-02-22T03:34:43.805Z,5.63
2023-02-22T03:35:43.777Z,5.60
2023-02-22T03:36:43.760Z,5.60
2023-02-22T03:37:43.741Z,5.58
2023-02-22T03:38:43.774Z,5.57
2023-02-22T03:39:43.794Z,5.57
2023-02-22T03:40:44.584Z,5.56
2023-02-22T03:41:43.727Z,5.58
2023-02-22T03:42:43.804Z,5.58
2023-02-22T03:43:43.649Z,5.56
2023-02-22T03:44:43.652Z,5.49
2023-02-22T03:45:43.639Z,5.40
2023-02-22T03:46:43.623Z,5.30
2023-02-22T03:47:43.614Z,5.21
2023-02-22T03:48:43.610Z,5.09
2023-02-22T03:49:43.595Z,5.02
2023-02-22T03:50:43.647Z,4.97
2023-02-22T03:51:43.561Z,4.96
2023-02-22T03:52:43.546Z,4.89
2023-02-22T03:53:43.544Z,4.84
2023-02-22T03:54:43.553Z,4.77
2023-02-22T03:55:43.513Z,4.75
2023-02-22T03:56:43.537Z,4.80
2023-02-22T03:57:43.512Z,4.77
2023-02-22T03:58:43.502Z,4.77
2023-02-22T03:59:43.496Z,4.78
2023-02-22T04:00:43.468Z,4.86
2023-02-22T04:01:52.010Z,4.88
2023-02-22T04:02:44.312Z,4.84
2023-02-22T04:03:43.443Z,4.73
2023-02-22T04:04:43.519Z,4.66
2023-02-22T04:05:43.448Z,4.55
2023-02-22T04:06:43.409Z,4.50
2023-02-22T04:07:43.407Z,4.44
2023-02-22T04:08:43.401Z,4.40
2023-02-22T04:09:43.381Z,4.36
2023-02-22T04:10:43.371Z,4.32
2023-02-22T04:11:43.387Z,4.34
2023-02-22T04:12:43.341Z,4.33
2023-02-22T04:13:43.462Z,4.33
2023-02-22T04:14:43.343Z,4.32
2023-02-22T04:15:43.340Z,4.30
2023-02-22T04:16:43.318Z,4.29
2023-02-22T04:17:43.317Z,4.29
2023-02-22T04:18:43.288Z,4.30
2023-02-22T04:19:43.276Z,4.32
2023-02-22T04:20:43.268Z,4.27
2023-02-22T04:21:43.268Z,4.23
2023-02-22T04:22:43.240Z,4.15
2023-02-22T04:23:43.253Z,4.11
2023-02-22T04:24:43.243Z,4.08
2023-02-22T04:25:43.213Z,3.98
2023-02-22T04:26:43.203Z,3.93
2023-02-22T04:27:43.204Z,3.88
2023-02-22T04:28:43.184Z,3.84
2023-02-22T04:29:43.167Z,3.83
2023-02-22T04:30:43.182Z,3.80
2023-02-22T04:31:43.213Z,3.80
2023-02-22T04:32:43.132Z,3.87
2023-02-22T04:33:43.130Z,3.90
2023-02-22T04:34:43.121Z,3.94
2023-02-22T04:35:43.127Z,3.94
2023-02-22T04:36:43.087Z,3.88
2023-02-22T04:37:43.116Z,3.87
2023-02-22T04:38:43.088Z,3.80
2023-02-22T04:39:43.086Z,3.76
2023-02-22T04:40:43.073Z,3.75
2023-02-22T04:41:43.074Z,3.73
2023-02-22T04:42:43.020Z,3.72
2023-02-22T04:43:43.057Z,3.70
2023-02-22T04:44:43.192Z,3.70
2023-02-22T04:45:42.992Z,3.68
2023-02-22T04:46:43.024Z,3.68
2023-02-22T04:47:42.974Z,3.68
2023-02-22T04:48:42.971Z,3.69
2023-02-22T04:49:42.970Z,3.68
2023-02-22T04:50:42.930Z,3.68
2023-02-22T04:51:42.942Z,3.66
2023-02-22T04:52:42.950Z,3.68
2023-02-22T04:53:42.944Z,3.68
2023-02-22T04:54:42.906Z,3.65
2023-02-22T04:55:42.910Z,3.61
2023-02-22T04:56:42.902Z,3.57
2023-02-22T04:57:42.915Z,3.55
2023-02-22T04:58:42.852Z,3.52
2023-02-22T04:59:42.856Z,3.54
2023-02-22T05:00:42.829Z,3.48
2023-02-22T05:01:42.854Z,3.50
2023-02-22T05:02:42.842Z,3.48
2023-02-22T05:03:42.829Z,3.48
2023-02-22T05:04:42.842Z,3.51
2023-02-22T05:05:42.795Z,3.58
2023-02-22T05:06:42.777Z,3.60
2023-02-22T05:07:42.757Z,3.61
2023-02-22T05:08:42.752Z,3.58
2023-02-22T05:09:42.744Z,3.54
2023-02-22T05:10:42.711Z,3.52
2023-02-22T05:11:42.734Z,3.51
2023-02-22T05:12:42.720Z,3.51
2023-02-22T05:13:42.779Z,3.55
2023-02-22T05:14:42.701Z,3.58
2023-02-22T05:15:42.783Z,3.57
2023-02-22T05:16:43.900Z,3.57
2023-02-22T05:17:42.679Z,3.55
2023-02-22T05:18:42.651Z,3.57
2023-02-22T05:19:42.679Z,3.55
2023-02-22T05:20:42.638Z,3.54
2023-02-22T05:21:42.624Z,3.55
2023-02-22T05:22:42.596Z,3.55
2023-02-22T05:23:42.601Z,3.55
2023-02-22T05:24:42.581Z,3.54
2023-02-22T05:25:42.574Z,3.57
2023-02-22T05:26:42.597Z,3.55
2023-02-22T05:27:42.536Z,3.52
2023-02-22T05:28:42.546Z,3.54
2023-02-22T05:29:42.548Z,3.50
2023-02-22T05:30:42.627Z,3.45
2023-02-22T05:31:42.640Z,3.43
2023-02-22T05:32:42.486Z,3.43
2023-02-22T05:33:42.484Z,3.40
2023-02-22T05:34:42.540Z,3.36
2023-02-22T05:35:42.479Z,3.40
2023-02-22T05:36:42.554Z,3.43
2023-02-22T05:37:42.453Z,3.45
2023-02-22T05:38:42.418Z,3.45
2023-02-22T05:39:42.436Z,3.43
2023-02-22T05:40:42.421Z,3.42
2023-02-22T05:41:42.412Z,3.43
2023-02-22T05:42:42.476Z,3.42
2023-02-22T05:43:42.546Z,3.43
2023-02-22T05:44:42.400Z,3.36
2023-02-22T05:45:42.424Z,3.36
2023-02-22T05:46:42.527Z,3.35
2023-02-22T05:47:42.526Z,3.29
2023-02-22T05:48:42.362Z,3.31
2023-02-22T05:49:42.436Z,3.31
2023-02-22T05:50:42.363Z,3.32
2023-02-22T05:51:42.343Z,3.33
2023-02-22T05:52:42.322Z,3.40
2023-02-22T05:53:42.435Z,3.42
2023-02-22T05:54:42.283Z,3.42
2023-02-22T05:55:42.404Z,3.42
2023-02-22T05:56:42.267Z,3.39
2023-02-22T05:57:42.297Z,3.36
2023-02-22T05:58:42.253Z,3.33
2023-02-22T05:59:42.250Z,3.33
2023-02-22T06:00:42.230Z,3.31
2023-02-22T06:01:42.425Z,3.28
2023-02-22T06:02:42.209Z,3.21
2023-02-22T06:03:42.220Z,3.21
2023-02-22T06:04:42.249Z,3.18
2023-02-22T06:05:42.265Z,3.15
2023-02-22T06:06:42.173Z,3.10
2023-02-22T06:07:42.184Z,3.08
2023-02-22T06:08:42.140Z,3.13
2023-02-22T06:09:42.301Z,3.11
2023-02-22T06:10:42.171Z,3.13
2023-02-22T06:11:42.202Z,3.11
2023-02-22T06:12:42.144Z,3.11
2023-02-22T06:13:42.108Z,3.11
2023-02-22T06:14:42.129Z,3.08
2023-02-22T06:15:42.129Z,3.05
2023-02-22T06:16:42.142Z,3.02
2023-02-22T06:17:42.125Z,2.97
2023-02-22T06:18:42.136Z,2.95
2023-02-22T06:19:42.034Z,2.93
2023-02-22T06:20:42.096Z,2.92
2023-02-22T06:21:42.021Z,2.87
2023-02-22T06:22:42.068Z,2.82
2023-02-22T06:23:42.088Z,2.79
2023-02-22T06:24:41.992Z,2.77
2023-02-22T06:25:42.010Z,2.74
2023-02-22T06:26:42.026Z,2.71
2023-02-22T06:27:41.987Z,2.71
2023-02-22T06:28:41.977Z,2.74
2023-02-22T06:29:41.977Z,2.74
2023-02-22T06:30:41.943Z,2.72
2023-02-22T06:31:42.025Z,2.69
2023-02-22T06:32:41.918Z,2.66
2023-02-22T06:33:41.949Z,2.66
2023-02-22T06:34:41.892Z,2.66
2023-02-22T06:35:41.902Z,2.61
2023-02-22T06:36:41.906Z,2.60
2023-02-22T06:37:41.867Z,2.64
2023-02-22T06:38:41.875Z,2.61
2023-02-22T06:39:41.883Z,2.63
2023-02-22T06:40:41.824Z,2.63
2023-02-22T06:41:41.871Z,2.66
2023-02-22T06:42:41.999Z,2.66
2023-02-22T06:43:41.839Z,2.63
2023-02-22T06:44:41.781Z,2.66
2023-02-22T06:45:41.829Z,2.66
2023-02-22T06:46:41.862Z,2.67
2023-02-22T06:47:41.767Z,2.69
2023-02-22T06:48:41.829Z,2.71
2023-02-22T06:49:41.720Z,2.72
2023-02-22T06:50:41.717Z,2.74
2023-02-22T06:51:41.712Z,2.75
2023-02-22T06:52:41.682Z,2.75
2023-02-22T06:53:41.707Z,2.78
2023-02-22T06:54:41.661Z,2.81
2023-02-22T06:55:41.691Z,2.87
2023-02-22T06:56:41.640Z,2.92
2023-02-22T06:57:41.730Z,2.93
2023-02-22T06:58:41.637Z,2.93
2023-02-22T06:59:41.657Z,2.96
2023-02-22T07:00:41.654Z,2.97
2023-02-22T07:01:41.644Z,3.02
2023-02-22T07:02:41.572Z,3.02
2023-02-22T07:03:41.689Z,3.08
2023-02-22T07:04:43.379Z,3.10
2023-02-22T07:05:41.674Z,3.13
2023-02-22T07:06:41.538Z,3.17
2023-02-22T07:07:41.621Z,3.24
2023-02-22T07:08:41.558Z,3.32
2023-02-22T07:09:41.530Z,3.39
2023-02-22T07:10:41.499Z,3.42
2023-02-22T07:11:41.491Z,3.47
2023-02-22T07:12:41.560Z,3.52
2023-02-22T07:13:41.460Z,3.57
2023-02-22T07:14:41.451Z,3.60
2023-02-22T07:15:42.481Z,3.65
2023-02-22T07:16:41.579Z,3.68
2023-02-22T07:17:41.443Z,3.70
2023-02-22T07:18:41.423Z,3.72
2023-02-22T07:19:41.726Z,3.73
2023-02-22T07:20:41.411Z,3.79
2023-02-22T07:21:41.423Z,3.86
2023-02-22T07:22:41.403Z,3.88
2023-02-22T07:23:41.398Z,3.90
2023-02-22T07:24:41.418Z,3.96
2023-02-22T07:25:41.362Z,3.93
2023-02-22T07:26:41.366Z,3.93
2023-02-22T07:27:41.427Z,3.97
2023-02-22T07:28:41.388Z,4.06
2023-02-22T07:29:41.399Z,4.11
2023-02-22T07:30:41.405Z,4.15
2023-02-22T07:31:41.389Z,4.15
2023-02-22T07:32:41.399Z,4.15
2023-02-22T07:33:41.329Z,4.22
2023-02-22T07:34:41.268Z,4.27
2023-02-22T07:35:41.249Z,4.32
2023-02-22T07:36:41.294Z,4.33
2023-02-22T07:37:41.263Z,4.33
2023-02-22T07:38:41.257Z,4.34
2023-02-22T07:39:41.299Z,4.41
2023-02-22T07:40:41.203Z,4.41
2023-02-22T07:41:41.204Z,4.47
2023-02-22T07:42:41.217Z,4.51
2023-02-22T07:43:41.159Z,4.54
2023-02-22T07:44:41.167Z,4.59
2023-02-22T07:45:41.233Z,4.60
2023-02-22T07:46:41.329Z,4.60
2023-02-22T07:47:41.138Z,4.60
2023-02-22T07:48:41.124Z,4.60
2023-02-22T07:49:41.093Z,4.67
2023-02-22T07:50:41.307Z,4.72
2023-02-22T07:51:41.077Z,4.77
2023-02-22T07:52:41.086Z,4.80
2023-02-22T07:53:41.058Z,4.85
2023-02-22T07:54:41.058Z,4.89
2023-02-22T07:55:41.064Z,4.97
2023-02-22T07:56:41.075Z,4.99
2023-02-22T07:57:41.045Z,5.02
2023-02-22T07:58:41.055Z,5.07
2023-02-22T07:59:41.069Z,5.13
2023-02-22T08:00:40.968Z,5.18
2023-02-22T08:01:41.035Z,5.22
2023-02-22T08:02:41.043Z,5.28
2023-02-22T08:03:41.032Z,5.33
2023-02-22T08:04:40.953Z,5.39
2023-02-22T08:05:40.950Z,5.46
2023-02-22T08:06:40.984Z,5.53
2023-02-22T08:07:40.901Z,5.60
2023-02-22T08:08:40.914Z,5.68
2023-02-22T08:09:41.008Z,5.78
2023-02-22T08:10:40.859Z,5.79
2023-02-22T08:11:40.881Z,5.85
2023-02-22T08:12:40.843Z,5.96
2023-02-22T08:13:40.903Z,6.01
2023-02-22T08:14:40.827Z,6.14
2023-02-22T08:15:40.826Z,6.21
2023-02-22T08:16:40.847Z,6.21
2023-02-22T08:17:40.844Z,6.34
2023-02-22T08:18:40.873Z,6.40
2023-02-22T08:19:40.776Z,6.40
2023-02-22T08:20:40.788Z,6.51
2023-02-22T08:21:40.899Z,6.66
2023-02-22T08:22:40.854Z,6.66
2023-02-22T08:23:40.774Z,6.73
2023-02-22T08:24:40.714Z,6.74
2023-02-22T08:25:40.717Z,6.66
2023-02-22T08:26:40.729Z,6.64
2023-02-22T08:27:40.755Z,6.61
2023-02-22T08:28:40.728Z,6.70
2023-02-22T08:29:40.669Z,6.70
2023-02-22T08:30:40.884Z,6.71
2023-02-22T08:31:40.648Z,6.73
2023-02-22T08:32:40.681Z,6.76
2023-02-22T08:33:40.614Z,6.77
2023-02-22T08:34:40.610Z,6.88
2023-02-22T08:35:40.623Z,6.97
2023-02-22T08:36:40.586Z,7.06
2023-02-22T08:37:40.588Z,7.09
2023-02-22T08:38:40.572Z,7.12
2023-02-22T08:39:40.544Z,7.20
2023-02-22T08:40:40.525Z,7.23
2023-02-22T08:41:40.493Z,7.25
2023-02-22T08:42:40.490Z,7.27
2023-02-22T08:43:40.490Z,7.31
2023-02-22T08:44:40.492Z,7.37
2023-02-22T08:45:40.494Z,7.45
2023-02-22T08:46:40.493Z,7.53
2023-02-22T08:47:40.440Z,7.60
2023-02-22T08:48:40.467Z,7.63
2023-02-22T08:49:40.437Z,7.72
2023-02-22T08:50:40.441Z,7.83
2023-02-22T08:51:40.442Z,7.90
2023-02-22T08:52:40.654Z,8.01
2023-02-22T08:53:40.477Z,8.16
2023-02-22T08:54:40.363Z,8.28
2023-02-22T08:55:40.369Z,8.40
2023-02-22T08:56:40.438Z,8.48
2023-02-22T08:57:40.324Z,8.53
2023-02-22T08:58:40.361Z,8.62
2023-02-22T08:59:40.345Z,8.65
2023-02-22T09:00:40.335Z,8.76
2023-02-22T09:01:40.395Z,8.73
2023-02-22T09:02:40.318Z,8.73
2023-02-22T09:03:40.312Z,8.73
2023-02-22T09:04:40.283Z,8.73
2023-02-22T09:05:40.338Z,8.71
2023-02-22T09:06:40.312Z,8.76
2023-02-22T09:07:40.301Z,8.89
2023-02-22T09:08:40.247Z,9.05
2023-02-22T09:09:40.230Z,9.15
2023-02-22T09:10:40.242Z,9.18
2023-02-22T09:11:40.298Z,9.23
2023-02-22T09:12:40.226Z,9.23
2023-02-22T09:13:40.236Z,9.23
2023-02-22T09:14:40.266Z,9.23
2023-02-22T09:15:40.179Z,9.33
2023-02-22T09:16:40.286Z,9.50
2023-02-22T09:17:40.119Z,9.60
2023-02-22T09:18:44.360Z,9.72
2023-02-22T09:19:40.126Z,9.75
2023-02-22T09:20:40.081Z,9.86
2023-02-22T09:21:40.105Z,10.02
2023-02-22T09:22:40.124Z,10.11
2023-02-22T09:23:40.121Z,10.18
2023-02-22T09:24:40.058Z,10.25
2023-02-22T09:25:40.021Z,10.33
2023-02-22T09:26:40.046Z,10.44
2023-02-22T09:27:40.013Z,10.56
2023-02-22T09:28:40.046Z,10.61
2023-02-22T09:29:39.970Z,10.71
2023-02-22T09:30:40.092Z,10.82
2023-02-22T09:31:40.120Z,10.97
2023-02-22T09:32:40.047Z,11.14
2023-02-22T09:33:39.942Z,11.33
2023-02-22T09:34:39.956Z,11.52
2023-02-22T09:35:39.954Z,11.60
2023-02-22T09:36:39.957Z,11.78
2023-02-22T09:37:39.984Z,11.79
2023-02-22T09:38:39.929Z,11.85
2023-02-22T09:39:39.946Z,11.95
2023-02-22T09:40:39.998Z,12.04
2023-02-22T09:41:39.891Z,12.12
2023-02-22T09:42:39.864Z,12.17
2023-02-22T09:43:39.845Z,12.28
2023-02-22T09:44:39.840Z,12.28
2023-02-22T09:45:39.827Z,12.27
2023-02-22T09:46:39.882Z,12.09
2023-02-22T09:47:39.836Z,12.19
2023-02-22T09:48:39.813Z,12.24
2023-02-22T09:49:39.801Z,12.31
2023-02-22T09:50:39.786Z,12.31
2023-02-22T09:51:39.770Z,12.41
2023-02-22T09:52:39.757Z,12.42
2023-02-22T09:53:39.767Z,12.41
2023-02-22T09:54:39.876Z,12.39
2023-02-22T09:55:39.697Z,12.49
2023-02-22T09:56:39.701Z,12.57
2023-02-22T09:57:39.694Z,12.62
2023-02-22T09:58:41.775Z,12.68
2023-02-22T09:59:39.661Z,12.79
2023-02-22T10:00:39.661Z,12.89
2023-02-22T10:01:46.643Z,12.92
2023-02-22T10:02:41.436Z,13.03
2023-02-22T10:03:42.330Z,13.15
2023-02-22T10:04:39.599Z,13.15
2023-02-22T10:05:39.708Z,13.15
2023-02-22T10:06:39.619Z,13.14
2023-02-22T10:07:39.580Z,13.08
2023-02-22T10:08:39.554Z,13.12
2023-02-22T10:09:39.555Z,13.14
2023-02-22T10:10:39.553Z,13.10
2023-02-22T10:11:39.515Z,13.14
2023-02-22T10:12:40.248Z,13.25
2023-02-22T10:13:39.491Z,13.39
2023-02-22T10:14:40.285Z,13.52
2023-02-22T10:15:39.503Z,13.60
2023-02-22T10:16:40.503Z,13.70
2023-02-22T10:17:39.459Z,13.75
2023-02-22T10:18:39.459Z,13.85
2023-02-22T10:19:39.453Z,14.02
2023-02-22T10:20:39.432Z,14.22
2023-02-22T10:21:39.410Z,14.37
2023-02-22T10:22:39.422Z,14.37
2023-02-22T10:23:40.336Z,14.45
2023-02-22T10:24:39.389Z,14.43
2023-02-22T10:25:39.411Z,14.46
2023-02-22T10:26:39.373Z,14.39
2023-02-22T10:27:39.351Z,14.22
2023-02-22T10:28:39.352Z,14.21
2023-02-22T10:29:39.321Z,14.20
2023-02-22T10:30:39.396Z,14.14
2023-02-22T10:31:39.324Z,14.00
2023-02-22T10:32:39.340Z,13.99
2023-02-22T10:33:39.276Z,14.04
2023-02-22T10:34:39.292Z,14.04
2023-02-22T10:35:39.303Z,14.06
2023-02-22T10:36:39.278Z,14.15
2023-02-22T10:37:39.356Z,14.18
2023-02-22T10:38:39.262Z,14.24
2023-02-22T10:39:39.236Z,14.37
2023-02-22T10:40:39.233Z,14.52
2023-02-22T10:41:39.197Z,14.52
2023-02-22T10:42:39.194Z,14.60
2023-02-22T10:43:40.163Z,14.68
2023-02-22T10:44:39.211Z,14.65
2023-02-22T10:45:39.176Z,14.75
2023-02-22T10:46:39.154Z,14.64
2023-02-22T10:47:39.140Z,14.58
2023-02-22T10:48:39.145Z,14.45
2023-02-22T10:49:39.109Z,14.37
2023-02-22T10:50:39.270Z,14.39
2023-02-22T10:51:39.098Z,14.50
2023-02-22T10:52:39.084Z,14.57
2023-02-22T10:53:39.101Z,14.60
2023-02-22T10:54:39.090Z,14.69
2023-02-22T10:55:39.092Z,14.70
2023-02-22T10:56:39.142Z,14.68
2023-02-22T10:57:39.028Z,14.65
2023-02-22T10:58:39.024Z,14.68
2023-02-22T10:59:39.000Z,14.55
2023-02-22T11:00:38.998Z,14.40
2023-02-22T11:01:39.019Z,13.99
2023-02-22T11:02:38.981Z,13.85
2023-02-22T11:03:38.968Z,13.84
2023-02-22T11:04:38.972Z,13.89
2023-02-22T11:05:38.951Z,13.95
2023-02-22T11:06:38.958Z,14.06
2023-02-22T11:07:38.943Z,14.18
2023-02-22T11:08:38.900Z,14.35
2023-02-22T11:09:38.887Z,14.47
2023-02-22T11:10:38.887Z,14.55
2023-02-22T11:11:38.872Z,14.60
2023-02-22T11:12:38.870Z,14.68
2023-02-22T11:13:38.839Z,14.72
2023-02-22T11:14:38.850Z,14.77
2023-02-22T11:15:38.832Z,14.73
2023-02-22T11:16:38.850Z,14.75
2023-02-22T11:17:38.801Z,14.70
2023-02-22T11:18:38.814Z,14.77
2023-02-22T11:19:38.784Z,14.91
2023-02-22T11:20:38.778Z,14.99
2023-02-22T11:21:38.770Z,15.06
2023-02-22T11:22:38.770Z,14.95
2023-02-22T11:23:38.745Z,14.94
2023-02-22T11:24:48.803Z,14.86
2023-02-22T11:25:39.736Z,14.91
2023-02-22T11:26:38.721Z,14.94
2023-02-22T11:27:38.839Z,15.03
2023-02-22T11:28:38.731Z,15.27
2023-02-22T11:29:38.671Z,15.36
2023-02-22T11:30:38.747Z,15.39
2023-02-22T11:31:38.865Z,15.53
2023-02-22T11:32:38.671Z,15.59
2023-02-22T11:33:38.642Z,15.41
2023-02-22T11:34:38.657Z,15.16
2023-02-22T11:35:38.640Z,14.95
2023-02-22T11:36:38.610Z,14.98
2023-02-22T11:37:38.604Z,14.92
2023-02-22T11:38:38.595Z,14.88
2023-02-22T11:39:38.637Z,14.89
2023-02-22T11:40:38.559Z,14.99
2023-02-22T11:41:38.535Z,15.13
2023-02-22T11:42:38.549Z,15.35
2023-02-22T11:43:38.554Z,15.53
2023-02-22T11:44:38.553Z,15.65
2023-02-22T11:45:44.074Z,15.64
2023-02-22T11:46:39.524Z,15.68
2023-02-22T11:47:38.479Z,15.60
2023-02-22T11:48:39.223Z,15.74
2023-02-22T11:49:38.468Z,15.62
2023-02-22T11:50:38.562Z,15.59
2023-02-22T11:51:38.426Z,15.82
2023-02-22T11:52:38.432Z,15.89
2023-02-22T11:53:38.424Z,15.97
2023-02-22T11:54:38.426Z,15.96
2023-02-22T11:55:43.308Z,15.96
2023-02-22T11:56:39.924Z,16.11
2023-02-22T11:57:38.380Z,16.24
2023-02-22T11:58:38.473Z,16.24
2023-02-22T11:59:38.364Z,16.11
2023-02-22T12:00:38.400Z,16.15
2023-02-22T12:01:38.355Z,16.24
2023-02-22T12:02:40.023Z,16.39
2023-02-22T12:03:38.379Z,16.49
2023-02-22T12:04:38.420Z,16.57
2023-02-22T12:05:38.301Z,16.58
2023-02-22T12:06:38.291Z,16.60
2023-02-22T12:07:38.284Z,16.63
2023-02-22T12:08:38.280Z,16.60
2023-02-22T12:09:38.271Z,16.56
2023-02-22T12:10:38.408Z,16.63
2023-02-22T12:11:38.213Z,16.70
2023-02-22T12:12:38.236Z,16.81
2023-02-22T12:13:38.213Z,16.68
2023-02-22T12:14:38.202Z,16.60
2023-02-22T12:15:38.335Z,16.34
2023-02-22T12:16:38.190Z,16.33
2023-02-22T12:17:39.083Z,16.45
2023-02-22T12:18:38.176Z,16.38
2023-02-22T12:19:38.153Z,16.30
2023-02-22T12:20:38.236Z,16.30
2023-02-22T12:21:38.118Z,16.35
2023-02-22T12:22:38.122Z,16.48
2023-02-22T12:23:38.102Z,16.60
2023-02-22T12:24:38.100Z,16.68
2023-02-22T12:25:38.081Z,16.76
2023-02-22T12:26:38.065Z,16.71
2023-02-22T12:27:38.052Z,16.64
2023-02-22T12:28:38.139Z,16.70
2023-02-22T12:29:38.076Z,16.79
2023-02-22T12:30:38.086Z,16.76
2023-02-22T12:31:38.128Z,16.89
2023-02-22T12:32:38.069Z,16.98
2023-02-22T12:33:38.096Z,16.98
2023-02-22T12:34:38.014Z,16.85
2023-02-22T12:35:37.971Z,16.66
2023-02-22T12:36:38.028Z,16.41
2023-02-22T12:37:37.971Z,16.49
2023-02-22T12:38:37.962Z,16.64
2023-02-22T12:39:51.869Z,16.82
2023-02-22T12:40:38.928Z,16.93
2023-02-22T12:41:37.919Z,17.03
2023-02-22T12:42:37.931Z,16.91
2023-02-22T12:43:37.902Z,16.58
2023-02-22T12:44:37.891Z,16.48
2023-02-22T12:45:37.906Z,16.45
2023-02-22T12:46:37.964Z,16.49
2023-02-22T12:47:37.897Z,16.50
2023-02-22T12:48:37.884Z,16.68
2023-02-22T12:49:37.867Z,16.83
2023-02-22T12:50:37.829Z,16.91
2023-02-22T12:51:37.810Z,17.11
2023-02-22T12:52:37.815Z,17.15
2023-02-22T12:53:37.808Z,17.07
2023-02-22T12:54:37.794Z,16.93
2023-02-22T12:55:37.788Z,16.94
2023-02-22T12:56:37.767Z,17.15
2023-02-22T12:57:37.749Z,17.46
2023-02-22T12:58:37.741Z,17.62
2023-02-22T12:59:37.723Z,17.75
2023-02-22T13:00:37.902Z,17.95
2023-02-22T13:01:37.795Z,17.71
2023-02-22T13:02:37.673Z,17.74
2023-02-22T13:03:37.675Z,17.95
2023-02-22T13:04:37.659Z,18.10
2023-02-22T13:05:37.737Z,18.03
2023-02-22T13:06:37.652Z,18.02
2023-02-22T13:07:37.631Z,17.62
2023-02-22T13:08:37.632Z,17.68
2023-02-22T13:09:37.667Z,17.96
2023-02-22T13:10:37.600Z,18.25